sensor_id;sensor_type;location;lat;lon;timestamp;pressure;altitude;pressure_sealevel;temperature;humidity
54262;BME280;40174;52.364;6.452;2023-02-13T00:00:01;103552.97;;;5.77;100.00
54262;BME280;40174;52.364;6.452;2023-02-13T00:02:30;103557.31;;;5.78;100.00
54262;BME280;40174;52.364;6.452;2023-02-13T00:04:56;103563.47;;;5.76;100.00
54262;BME280;40174;52.364;6.452;2023-02-13T00:07:23;103543.38;;;5.76;100.00
54262;BME280;40174;52.364;6.452;2023-02-13T00:09:49;103549.50;;;5.75;100.00
54262;BME280;40174;52.364;6.452;2023-02-13T00:12:16;103548.66;;;5.73;100.00
54262;BME280;40174;52.364;6.452;2023-02-13T00:14:42;103548.66;;;5.73;100.00
54262;BME280;40174;52.364;6.452;2023-02-13T00:17:10;103548.66;;;5.73;100.00
54262;BME280;40174;52.364;6.452;2023-02-13T00:19:37;103544.31;;;5.72;100.00
54262;BME280;40174;52.364;6.452;2023-02-13T00:22:04;103539.94;;;5.71;100.00
54262;BME280;40174;52.364;6.452;2023-02-13T00:24:30;103529.44;;;5.71;100.00
54262;BME280;40174;52.364;6.452;2023-02-13T00:26:57;103537.31;;;5.71;100.00
54262;BME280;40174;52.364;6.452;2023-02-13T00:29:23;103534.69;;;5.71;100.00
54262;BME280;40174;52.364;6.452;2023-02-13T00:31:50;103530.34;;;5.69;100.00
54262;BME280;40174;52.364;6.452;2023-02-13T00:34:18;103526.88;;;5.70;100.00
54262;BME280;40174;52.364;6.452;2023-02-13T00:36:45;103518.16;;;5.68;100.00
54262;BME280;40174;52.364;6.452;2023-02-13T00:39:11;103532.97;;;5.70;100.00
54262;BME280;40174;52.364;6.452;2023-02-13T00:41:38;103527.75;;;5.69;100.00
54262;BME280;40174;52.364;6.452;2023-02-13T00:44:05;103523.41;;;5.66;100.00
54262;BME280;40174;52.364;6.452;2023-02-13T00:46:31;103524.25;;;5.67;100.00
54262;BME280;40174;52.364;6.452;2023-02-13T00:48:58;103532.09;;;5.70;100.00
54262;BME280;40174;52.364;6.452;2023-02-13T00:51:26;103535.59;;;5.69;100.00
54262;BME280;40174;52.364;6.452;2023-02-13T00:53:53;103529.47;;;5.70;100.00
54262;BME280;40174;52.364;6.452;2023-02-13T00:56:20;103527.69;;;5.72;100.00
54262;BME280;40174;52.364;6.452;2023-02-13T00:58:46;103525.88;;;5.74;100.00
54262;BME280;40174;52.364;6.452;2023-02-13T01:01:13;103528.50;;;5.75;100.00
54262;BME280;40174;52.364;6.452;2023-02-13T01:03:40;103525.88;;;5.75;100.00
54262;BME280;40174;52.364;6.452;2023-02-13T01:06:07;103525.84;;;5.77;100.00
54262;BME280;40174;52.364;6.452;2023-02-13T01:08:37;103524.09;;;5.76;100.00
54262;BME280;40174;52.364;6.452;2023-02-13T01:11:04;103525.00;;;5.75;100.00
54262;BME280;40174;52.364;6.452;2023-02-13T01:13:31;103531.97;;;5.77;100.00
54262;BME280;40174;52.364;6.452;2023-02-13T01:15:58;103531.09;;;5.77;100.00
54262;BME280;40174;52.364;6.452;2023-02-13T01:18:24;103527.63;;;5.75;100.00
54262;BME280;40174;52.364;6.452;2023-02-13T01:20:58;103530.28;;;5.73;100.00
54262;BME280;40174;52.364;6.452;2023-02-13T01:23:25;103530.25;;;5.75;100.00
54262;BME280;40174;52.364;6.452;2023-02-13T01:25:56;103525.00;;;5.75;100.00
54262;BME280;40174;52.364;6.452;2023-02-13T01:28:23;103524.16;;;5.73;100.00
54262;BME280;40174;52.364;6.452;2023-02-13T01:30:53;103525.94;;;5.72;100.00
54262;BME280;40174;52.364;6.452;2023-02-13T01:33:21;103523.31;;;5.72;100.00
54262;BME280;40174;52.364;6.452;2023-02-13T01:35:48;103528.56;;;5.72;100.00
54262;BME280;40174;52.364;6.452;2023-02-13T01:38:14;103533.75;;;5.74;100.00
54262;BME280;40174;52.364;6.452;2023-02-13T01:40:45;103531.19;;;5.72;100.00
54262;BME280;40174;52.364;6.452;2023-02-13T01:43:14;103523.34;;;5.71;100.00
54262;BME280;40174;52.364;6.452;2023-02-13T01:45:41;103526.78;;;5.73;100.00
54262;BME280;40174;52.364;6.452;2023-02-13T01:48:12;103525.94;;;5.71;100.00
54262;BME280;40174;52.364;6.452;2023-02-13T01:50:43;103523.31;;;5.72;100.00
54262;BME280;40174;52.364;6.452;2023-02-13T01:53:15;103516.31;;;5.73;100.00
54262;BME280;40174;52.364;6.452;2023-02-13T01:55:47;103518.94;;;5.71;100.00
54262;BME280;40174;52.364;6.452;2023-02-13T01:58:18;103523.25;;;5.75;100.00
54262;BME280;40174;52.364;6.452;2023-02-13T02:00:46;103515.44;;;5.72;100.00
54262;BME280;40174;52.364;6.452;2023-02-13T02:03:17;103518.06;;;5.72;100.00
54262;BME280;40174;52.364;6.452;2023-02-13T02:05:48;103510.22;;;5.69;100.00
54262;BME280;40174;52.364;6.452;2023-02-13T02:08:16;103511.13;;;5.70;100.00
54262;BME280;40174;52.364;6.452;2023-02-13T02:10:51;103511.13;;;5.70;100.00
54262;BME280;40174;52.364;6.452;2023-02-13T02:13:19;103516.38;;;5.70;100.00
54262;BME280;40174;52.364;6.452;2023-02-13T02:15:47;103510.19;;;5.72;100.00
54262;BME280;40174;52.364;6.452;2023-02-13T02:18:15;103506.72;;;5.70;100.00
54262;BME280;40174;52.364;6.452;2023-02-13T02:24:16;103506.75;;;5.69;100.00
54262;BME280;40174;52.364;6.452;2023-02-13T02:27:18;103513.78;;;5.67;100.00
54262;BME280;40174;52.364;6.452;2023-02-13T02:30:16;103503.28;;;5.67;100.00
54262;BME280;40174;52.364;6.452;2023-02-13T02:33:01;103493.69;;;5.66;100.00
54262;BME280;40174;52.364;6.452;2023-02-13T02:35:36;103496.31;;;5.66;100.00
54262;BME280;40174;52.364;6.452;2023-02-13T02:38:20;103490.19;;;5.65;100.00
54262;BME280;40174;52.364;6.452;2023-02-13T02:40:59;103486.69;;;5.65;100.00
54262;BME280;40174;52.364;6.452;2023-02-13T02:43:48;103495.47;;;5.63;100.00
54262;BME280;40174;52.364;6.452;2023-02-13T02:46:26;103484.13;;;5.63;100.00
54262;BME280;40174;52.364;6.452;2023-02-13T02:49:03;103484.97;;;5.63;100.00
54262;BME280;40174;52.364;6.452;2023-02-13T02:51:54;103475.34;;;5.64;100.00
54262;BME280;40174;52.364;6.452;2023-02-13T02:54:25;103471.00;;;5.63;100.00
54262;BME280;40174;52.364;6.452;2023-02-13T02:57:16;103477.13;;;5.62;100.00
54262;BME280;40174;52.364;6.452;2023-02-13T02:59:52;103474.50;;;5.62;100.00
54262;BME280;40174;52.364;6.452;2023-02-13T03:02:38;103480.66;;;5.61;100.00
54262;BME280;40174;52.364;6.452;2023-02-13T03:05:39;103479.72;;;5.63;100.00
54262;BME280;40174;52.364;6.452;2023-02-13T03:08:27;103477.09;;;5.63;100.00
54262;BME280;40174;52.364;6.452;2023-02-13T03:11:08;103475.34;;;5.64;100.00
54262;BME280;40174;52.364;6.452;2023-02-13T03:13:53;103476.25;;;5.63;100.00
54262;BME280;40174;52.364;6.452;2023-02-13T03:16:23;103475.34;;;5.62;100.00
54262;BME280;40174;52.364;6.452;2023-02-13T03:19:12;103488.47;;;5.62;100.00
54262;BME280;40174;52.364;6.452;2023-02-13T03:22:05;103495.50;;;5.60;100.00
54262;BME280;40174;52.364;6.452;2023-02-13T03:24:53;103479.75;;;5.62;100.00
54262;BME280;40174;52.364;6.452;2023-02-13T03:27:26;103486.75;;;5.63;100.00
54262;BME280;40174;52.364;6.452;2023-02-13T03:30:22;103489.38;;;5.61;100.00
54262;BME280;40174;52.364;6.452;2023-02-13T03:33:02;103487.59;;;5.63;100.00
54262;BME280;40174;52.364;6.452;2023-02-13T03:35:37;103481.50;;;5.63;100.00
54262;BME280;40174;52.364;6.452;2023-02-13T03:38:29;103481.50;;;5.63;100.00
54262;BME280;40174;52.364;6.452;2023-02-13T03:41:01;103481.50;;;5.63;100.00
54262;BME280;40174;52.364;6.452;2023-02-13T03:43:51;103492.84;;;5.62;100.00
54262;BME280;40174;52.364;6.452;2023-02-13T03:46:22;103485.00;;;5.62;100.00
54262;BME280;40174;52.364;6.452;2023-02-13T03:48:51;103484.16;;;5.60;100.00
54262;BME280;40174;52.364;6.452;2023-02-13T03:51:40;103484.13;;;5.61;100.00
54262;BME280;40174;52.364;6.452;2023-02-13T03:54:16;103492.84;;;5.62;100.00
54262;BME280;40174;52.364;6.452;2023-02-13T03:56:45;103479.75;;;5.60;100.00
54262;BME280;40174;52.364;6.452;2023-02-13T03:59:34;103489.44;;;5.58;100.00
54262;BME280;40174;52.364;6.452;2023-02-13T04:02:07;103499.03;;;5.59;100.00
54262;BME280;40174;52.364;6.452;2023-02-13T04:04:43;103493.78;;;5.58;100.00
54262;BME280;40174;52.364;6.452;2023-02-13T04:07:14;103492.91;;;5.59;100.00
54262;BME280;40174;52.364;6.452;2023-02-13T04:09:55;103491.16;;;5.58;100.00
54262;BME280;40174;52.364;6.452;2023-02-13T04:12:26;103494.69;;;5.57;100.00
54262;BME280;40174;52.364;6.452;2023-02-13T04:15:00;103493.78;;;5.59;100.00
54262;BME280;40174;52.364;6.452;2023-02-13T04:17:32;103487.69;;;5.59;100.00
54262;BME280;40174;52.364;6.452;2023-02-13T04:19:59;103478.94;;;5.58;100.00
54262;BME280;40174;52.364;6.452;2023-02-13T04:22:26;103478.94;;;5.58;100.00
54262;BME280;40174;52.364;6.452;2023-02-13T04:24:52;103480.66;;;5.59;100.00
54262;BME280;40174;52.364;6.452;2023-02-13T04:27:22;103482.44;;;5.59;100.00
54262;BME280;40174;52.364;6.452;2023-02-13T04:29:50;103471.88;;;5.60;100.00
54262;BME280;40174;52.364;6.452;2023-02-13T04:32:17;103472.78;;;5.59;100.00
54262;BME280;40174;52.364;6.452;2023-02-13T04:34:44;103473.72;;;5.57;100.00
54262;BME280;40174;52.364;6.452;2023-02-13T04:37:10;103477.22;;;5.56;100.00
54262;BME280;40174;52.364;6.452;2023-02-13T04:39:37;103475.50;;;5.55;100.00
54262;BME280;40174;52.364;6.452;2023-02-13T04:42:03;103478.97;;;5.57;100.00
54262;BME280;40174;52.364;6.452;2023-02-13T04:44:31;103473.78;;;5.54;100.00
54262;BME280;40174;52.364;6.452;2023-02-13T04:46:58;103475.50;;;5.55;100.00
54262;BME280;40174;52.364;6.452;2023-02-13T04:49:25;103469.38;;;5.54;100.00
54262;BME280;40174;52.364;6.452;2023-02-13T04:51:51;103471.16;;;5.54;100.00
54262;BME280;40174;52.364;6.452;2023-02-13T04:54:18;103462.41;;;5.53;100.00
54262;BME280;40174;52.364;6.452;2023-02-13T04:56:44;103458.94;;;5.51;100.00
54262;BME280;40174;52.364;6.452;2023-02-13T04:59:11;103446.66;;;5.53;100.00
54262;BME280;40174;52.364;6.452;2023-02-13T05:01:39;103455.44;;;5.52;100.00
54262;BME280;40174;52.364;6.452;2023-02-13T05:04:06;103462.44;;;5.52;100.00
54262;BME280;40174;52.364;6.452;2023-02-13T05:06:32;103459.81;;;5.52;100.00
54262;BME280;40174;52.364;6.452;2023-02-13T05:08:59;103458.06;;;5.52;100.00
54262;BME280;40174;52.364;6.452;2023-02-13T05:11:25;103460.69;;;5.52;100.00
54262;BME280;40174;52.364;6.452;2023-02-13T05:13:52;103458.97;;;5.50;100.00
54262;BME280;40174;52.364;6.452;2023-02-13T05:16:18;103456.31;;;5.51;100.00
54262;BME280;40174;52.364;6.452;2023-02-13T05:18:46;103454.56;;;5.52;100.00
54262;BME280;40174;52.364;6.452;2023-02-13T05:21:13;103461.53;;;5.53;100.00
54262;BME280;40174;52.364;6.452;2023-02-13T05:24:05;103462.47;;;5.50;100.00
54262;BME280;40174;52.364;6.452;2023-02-13T05:26:32;103462.44;;;5.52;100.00
54262;BME280;40174;52.364;6.452;2023-02-13T05:28:59;103465.06;;;5.52;100.00
54262;BME280;40174;52.364;6.452;2023-02-13T05:31:43;103460.69;;;5.52;100.00
54262;BME280;40174;52.364;6.452;2023-02-13T05:34:11;103455.44;;;5.52;100.00
54262;BME280;40174;52.364;6.452;2023-02-13T05:36:37;103459.81;;;5.52;100.00
54262;BME280;40174;52.364;6.452;2023-02-13T05:39:04;103460.69;;;5.52;100.00
54262;BME280;40174;52.364;6.452;2023-02-13T05:41:30;103447.56;;;5.52;100.00
54262;BME280;40174;52.364;6.452;2023-02-13T05:43:57;103453.66;;;5.54;100.00
54262;BME280;40174;52.364;6.452;2023-02-13T05:46:24;103449.31;;;5.52;100.00
54262;BME280;40174;52.364;6.452;2023-02-13T05:48:50;103447.53;;;5.54;100.00
54262;BME280;40174;52.364;6.452;2023-02-13T05:51:19;103446.63;;;5.55;100.00
54262;BME280;40174;52.364;6.452;2023-02-13T05:53:46;103445.78;;;5.53;100.00
54262;BME280;40174;52.364;6.452;2023-02-13T05:56:12;103445.78;;;5.53;100.00
54262;BME280;40174;52.364;6.452;2023-02-13T05:58:39;103445.81;;;5.51;100.00
54262;BME280;40174;52.364;6.452;2023-02-13T06:01:06;103449.31;;;5.52;100.00
54262;BME280;40174;52.364;6.452;2023-02-13T06:03:32;103451.94;;;5.52;100.00
54262;BME280;40174;52.364;6.452;2023-02-13T06:05:59;103452.81;;;5.51;100.00
54262;BME280;40174;52.364;6.452;2023-02-13T06:08:27;103448.47;;;5.50;100.00
54262;BME280;40174;52.364;6.452;2023-02-13T06:10:54;103449.34;;;5.49;100.00
54262;BME280;40174;52.364;6.452;2023-02-13T06:13:20;103458.97;;;5.50;100.00
54262;BME280;40174;52.364;6.452;2023-02-13T06:15:47;103462.47;;;5.50;100.00
54262;BME280;40174;52.364;6.452;2023-02-13T06:18:15;103465.06;;;5.50;100.00
54262;BME280;40174;52.364;6.452;2023-02-13T06:20:41;103465.91;;;5.52;100.00
54262;BME280;40174;52.364;6.452;2023-02-13T06:23:08;103461.59;;;5.50;100.00
54262;BME280;40174;52.364;6.452;2023-02-13T06:25:36;103473.81;;;5.51;100.00
54262;BME280;40174;52.364;6.452;2023-02-13T06:28:04;103466.84;;;5.50;100.00
54262;BME280;40174;52.364;6.452;2023-02-13T06:30:30;103465.09;;;5.49;100.00
54262;BME280;40174;52.364;6.452;2023-02-13T06:32:57;103471.19;;;5.49;100.00
54262;BME280;40174;52.364;6.452;2023-02-13T06:35:24;103474.75;;;5.47;100.00
54262;BME280;40174;52.364;6.452;2023-02-13T06:37:51;103478.28;;;5.46;100.00
54262;BME280;40174;52.364;6.452;2023-02-13T06:40:17;103490.47;;;5.47;100.00
54262;BME280;40174;52.364;6.452;2023-02-13T06:42:45;103483.50;;;5.47;100.00
54262;BME280;40174;52.364;6.452;2023-02-13T06:45:12;103487.03;;;5.45;100.00
54262;BME280;40174;52.364;6.452;2023-02-13T06:47:40;103494.00;;;5.47;100.00
54262;BME280;40174;52.364;6.452;2023-02-13T06:50:08;103494.00;;;5.46;100.00
54262;BME280;40174;52.364;6.452;2023-02-13T06:52:34;103501.03;;;5.45;100.00
54262;BME280;40174;52.364;6.452;2023-02-13T06:55:01;103500.13;;;5.45;100.00
54262;BME280;40174;52.364;6.452;2023-02-13T06:57:28;103501.03;;;5.45;100.00
54262;BME280;40174;52.364;6.452;2023-02-13T06:59:58;103501.88;;;5.46;100.00
54262;BME280;40174;52.364;6.452;2023-02-13T07:02:27;103502.75;;;5.46;100.00
54262;BME280;40174;52.364;6.452;2023-02-13T07:04:54;103496.63;;;5.46;100.00
54262;BME280;40174;52.364;6.452;2023-02-13T07:07:21;103495.72;;;5.48;100.00
54262;BME280;40174;52.364;6.452;2023-02-13T07:09:47;103489.63;;;5.46;100.00
54262;BME280;40174;52.364;6.452;2023-02-13T07:12:14;103494.81;;;5.49;100.00
54262;BME280;40174;52.364;6.452;2023-02-13T07:14:40;103496.56;;;5.49;100.00
54262;BME280;40174;52.364;6.452;2023-02-13T07:17:08;103503.59;;;5.48;100.00
54262;BME280;40174;52.364;6.452;2023-02-13T07:19:35;103507.06;;;5.50;100.00
54262;BME280;40174;52.364;6.452;2023-02-13T07:22:02;103510.53;;;5.52;100.00
54262;BME280;40174;52.364;6.452;2023-02-13T07:24:28;103505.28;;;5.51;100.00
54262;BME280;40174;52.364;6.452;2023-02-13T07:26:55;103508.78;;;5.51;100.00
54262;BME280;40174;52.364;6.452;2023-02-13T07:29:21;103507.91;;;5.52;100.00
54262;BME280;40174;52.364;6.452;2023-02-13T07:31:48;103514.03;;;5.51;100.00
54262;BME280;40174;52.364;6.452;2023-02-13T07:34:16;103507.03;;;5.52;100.00
54262;BME280;40174;52.364;6.452;2023-02-13T07:36:43;103514.00;;;5.53;100.00
54262;BME280;40174;52.364;6.452;2023-02-13T07:39:09;103510.50;;;5.54;100.00
54262;BME280;40174;52.364;6.452;2023-02-13T07:41:36;103511.38;;;5.54;100.00
54262;BME280;40174;52.364;6.452;2023-02-13T07:44:05;103519.19;;;5.57;100.00
54262;BME280;40174;52.364;6.452;2023-02-13T07:46:32;103516.56;;;5.57;100.00
54262;BME280;40174;52.364;6.452;2023-02-13T07:48:58;103519.19;;;5.57;100.00
54262;BME280;40174;52.364;6.452;2023-02-13T07:51:26;103522.72;;;5.56;100.00
54262;BME280;40174;52.364;6.452;2023-02-13T07:53:53;103514.75;;;5.61;100.00
54262;BME280;40174;52.364;6.452;2023-02-13T07:56:20;103528.72;;;5.61;100.00
54262;BME280;40174;52.364;6.452;2023-02-13T07:58:47;103523.47;;;5.63;100.00
54262;BME280;40174;52.364;6.452;2023-02-13T08:01:15;103522.56;;;5.66;100.00
54262;BME280;40174;52.364;6.452;2023-02-13T08:03:42;103527.75;;;5.67;100.00
54262;BME280;40174;52.364;6.452;2023-02-13T08:06:08;103531.19;;;5.71;100.00
54262;BME280;40174;52.364;6.452;2023-02-13T08:08:36;103529.41;;;5.73;100.00
54262;BME280;40174;52.364;6.452;2023-02-13T08:11:05;103529.34;;;5.76;100.00
54262;BME280;40174;52.364;6.452;2023-02-13T08:13:50;103522.38;;;5.76;100.00
54262;BME280;40174;52.364;6.452;2023-02-13T08:16:16;103527.56;;;5.79;100.00
54262;BME280;40174;52.364;6.452;2023-02-13T08:18:43;103529.25;;;5.82;100.00
54262;BME280;40174;52.364;6.452;2023-02-13T08:21:10;103529.25;;;5.83;100.00
54262;BME280;40174;52.364;6.452;2023-02-13T08:23:38;103530.97;;;5.84;100.00
54262;BME280;40174;52.364;6.452;2023-02-13T08:26:04;103525.72;;;5.84;100.00
54262;BME280;40174;52.364;6.452;2023-02-13T08:28:31;103527.41;;;5.89;100.00
54262;BME280;40174;52.364;6.452;2023-02-13T08:30:57;103526.47;;;5.91;100.00
54262;BME280;40174;52.364;6.452;2023-02-13T08:33:24;103529.94;;;5.92;100.00
54262;BME280;40174;52.364;6.452;2023-02-13T08:35:51;103530.88;;;5.91;100.00
54262;BME280;40174;52.364;6.452;2023-02-13T08:38:18;103524.69;;;5.93;100.00
54262;BME280;40174;52.364;6.452;2023-02-13T08:40:46;103529.03;;;5.96;100.00
54262;BME280;40174;52.364;6.452;2023-02-13T08:43:13;103520.31;;;5.95;100.00
54262;BME280;40174;52.364;6.452;2023-02-13T08:45:40;103527.25;;;5.98;100.00
54262;BME280;40174;52.364;6.452;2023-02-13T08:48:06;103522.00;;;5.99;100.00
54262;BME280;40174;52.364;6.452;2023-02-13T08:50:33;103534.13;;;6.05;100.00
54262;BME280;40174;52.364;6.452;2023-02-13T08:52:59;103530.63;;;6.06;100.00
54262;BME280;40174;52.364;6.452;2023-02-13T08:55:26;103526.25;;;6.05;100.00
54262;BME280;40174;52.364;6.452;2023-02-13T08:57:58;103528.84;;;6.08;100.00
54262;BME280;40174;52.364;6.452;2023-02-13T09:00:25;103533.19;;;6.09;100.00
54262;BME280;40174;52.364;6.452;2023-02-13T09:02:51;103532.25;;;6.13;100.00
54262;BME280;40174;52.364;6.452;2023-02-13T09:05:18;103533.91;;;6.17;100.00
54262;BME280;40174;52.364;6.452;2023-02-13T09:07:45;103535.69;;;6.17;100.00
54262;BME280;40174;52.364;6.452;2023-02-13T09:10:11;103534.75;;;6.19;100.00
54262;BME280;40174;52.364;6.452;2023-02-13T09:12:38;103539.09;;;6.22;100.00
54262;BME280;40174;52.364;6.452;2023-02-13T09:15:07;103540.78;;;6.24;100.00
54262;BME280;40174;52.364;6.452;2023-02-13T09:17:33;103544.19;;;6.30;100.00
54262;BME280;40174;52.364;6.452;2023-02-13T09:20:00;103546.75;;;6.33;100.00
54262;BME280;40174;52.364;6.452;2023-02-13T09:22:27;103549.34;;;6.34;100.00
54262;BME280;40174;52.364;6.452;2023-02-13T09:24:54;103544.91;;;6.38;100.00
54262;BME280;40174;52.364;6.452;2023-02-13T09:27:20;103548.31;;;6.43;100.00
54262;BME280;40174;52.364;6.452;2023-02-13T09:29:47;103555.31;;;6.44;100.00
54262;BME280;40174;52.364;6.452;2023-02-13T09:32:15;103549.09;;;6.48;100.00
54262;BME280;40174;52.364;6.452;2023-02-13T09:34:42;103548.16;;;6.51;100.00
54262;BME280;40174;52.364;6.452;2023-02-13T09:37:08;103553.28;;;6.57;100.00
54262;BME280;40174;52.364;6.452;2023-02-13T09:39:35;103549.78;;;6.58;100.00
54262;BME280;40174;52.364;6.452;2023-02-13T09:42:04;103544.41;;;6.62;100.00
54262;BME280;40174;52.364;6.452;2023-02-13T09:44:39;103548.72;;;6.66;100.00
54262;BME280;40174;52.364;6.452;2023-02-13T09:47:15;103545.13;;;6.71;100.00
54262;BME280;40174;52.364;6.452;2023-02-13T09:49:45;103538.88;;;6.76;100.00
54262;BME280;40174;52.364;6.452;2023-02-13T09:52:14;103536.13;;;6.82;100.00
54262;BME280;40174;52.364;6.452;2023-02-13T09:54:41;103538.72;;;6.84;100.00
54262;BME280;40174;52.364;6.452;2023-02-13T09:57:14;103536.84;;;6.91;100.00
54262;BME280;40174;52.364;6.452;2023-02-13T09:59:51;103541.09;;;6.95;100.00
54262;BME280;40174;52.364;6.452;2023-02-13T10:02:36;103541.88;;;7.00;100.00
54262;BME280;40174;52.364;6.452;2023-02-13T10:05:18;103549.63;;;7.06;100.00
54262;BME280;40174;52.364;6.452;2023-02-13T10:07:54;103548.66;;;7.10;100.00
54262;BME280;40174;52.364;6.452;2023-02-13T10:10:31;103546.84;;;7.14;100.00
54262;BME280;40174;52.364;6.452;2023-02-13T10:13:14;103554.63;;;7.17;100.00
54262;BME280;40174;52.364;6.452;2023-02-13T10:15:50;103552.75;;;7.22;100.00
54262;BME280;40174;52.364;6.452;2023-02-13T10:18:24;103550.09;;;7.23;100.00
54262;BME280;40174;52.364;6.452;2023-02-13T10:20:58;103546.50;;;7.27;100.00
54262;BME280;40174;52.364;6.452;2023-02-13T10:23:29;103539.38;;;7.33;100.00
54262;BME280;40174;52.364;6.452;2023-02-13T10:26:00;103540.19;;;7.35;100.00
54262;BME280;40174;52.364;6.452;2023-02-13T10:28:32;103544.53;;;7.37;100.00
54262;BME280;40174;52.364;6.452;2023-02-13T10:31:04;103546.16;;;7.43;100.00
54262;BME280;40174;52.364;6.452;2023-02-13T10:33:39;103544.34;;;7.45;100.00
54262;BME280;40174;52.364;6.452;2023-02-13T10:36:16;103539.03;;;7.46;100.00
54262;BME280;40174;52.364;6.452;2023-02-13T10:38:47;103540.66;;;7.52;100.00
54262;BME280;40174;52.364;6.452;2023-02-13T10:41:27;103544.13;;;7.54;100.00
54262;BME280;40174;52.364;6.452;2023-02-13T10:47:11;103522.09;;;7.58;100.00
54262;BME280;40174;52.364;6.452;2023-02-13T10:49:54;103537.78;;;7.63;100.00
54262;BME280;40174;52.364;6.452;2023-02-13T10:52:35;103530.66;;;7.66;100.00
54262;BME280;40174;52.364;6.452;2023-02-13T10:55:14;103530.50;;;7.73;100.00
54262;BME280;40174;52.364;6.452;2023-02-13T10:58:00;103531.31;;;7.76;100.00
54262;BME280;40174;52.364;6.452;2023-02-13T11:00:34;103534.69;;;7.81;100.00
54262;BME280;40174;52.364;6.452;2023-02-13T11:03:03;103526.66;;;7.86;100.00
54262;BME280;40174;52.364;6.452;2023-02-13T11:05:34;103530.97;;;7.88;100.00
54262;BME280;40174;52.364;6.452;2023-02-13T11:08:03;103525.66;;;7.91;100.00
54262;BME280;40174;52.364;6.452;2023-02-13T11:10:29;103522.91;;;7.95;100.00
54262;BME280;40174;52.364;6.452;2023-02-13T11:12:57;103518.53;;;7.94;100.00
54262;BME280;40174;52.364;6.452;2023-02-13T11:15:39;103516.69;;;7.99;100.00
54262;BME280;40174;52.364;6.452;2023-02-13T11:18:13;103520.06;;;8.02;100.00
54262;BME280;40174;52.364;6.452;2023-02-13T11:20:44;103514.78;;;8.04;100.00
54262;BME280;40174;52.364;6.452;2023-02-13T11:23:32;103511.16;;;8.08;100.00
54262;BME280;40174;52.364;6.452;2023-02-13T11:26:01;103511.97;;;8.10;100.00
54262;BME280;40174;52.364;6.452;2023-02-13T11:28:29;103502.28;;;8.10;100.00
54262;BME280;40174;52.364;6.452;2023-02-13T11:31:10;103501.31;;;8.15;100.00
54262;BME280;40174;52.364;6.452;2023-02-13T11:33:37;103499.44;;;8.18;100.00
54262;BME280;40174;52.364;6.452;2023-02-13T11:36:08;103500.97;;;8.27;100.00
54262;BME280;40174;52.364;6.452;2023-02-13T11:38:35;103501.75;;;8.30;100.00
54262;BME280;40174;52.364;6.452;2023-02-13T11:41:07;103500.78;;;8.33;100.00
54262;BME280;40174;52.364;6.452;2023-02-13T11:43:36;103506.03;;;8.35;100.00
54262;BME280;40174;52.364;6.452;2023-02-13T11:46:16;103496.34;;;8.35;100.00
54262;BME280;40174;52.364;6.452;2023-02-13T11:48:43;103485.84;;;8.33;100.00
54262;BME280;40174;52.364;6.452;2023-02-13T11:51:34;103498.00;;;8.39;100.00
54262;BME280;40174;52.364;6.452;2023-02-13T11:54:02;103490.81;;;8.46;100.00
54262;BME280;40174;52.364;6.452;2023-02-13T11:56:46;103489.88;;;8.47;100.00
54262;BME280;40174;52.364;6.452;2023-02-13T11:59:13;103490.66;;;8.50;100.00
54262;BME280;40174;52.364;6.452;2023-02-13T12:01:40;103492.34;;;8.53;100.00
54262;BME280;40174;52.364;6.452;2023-02-13T12:04:14;103490.41;;;8.60;100.00
54262;BME280;40174;52.364;6.452;2023-02-13T12:06:58;103492.06;;;8.62;100.00
54262;BME280;40174;52.364;6.452;2023-02-13T12:09:26;103487.66;;;8.63;100.00
54262;BME280;40174;52.364;6.452;2023-02-13T12:11:56;103484.00;;;8.68;100.00
54262;BME280;40174;52.364;6.452;2023-02-13T12:14:26;103492.66;;;8.72;100.00
54262;BME280;40174;52.364;6.452;2023-02-13T12:16:57;103482.88;;;8.76;100.00
54262;BME280;40174;52.364;6.452;2023-02-13T12:19:28;103487.31;;;8.75;100.00
54262;BME280;40174;52.364;6.452;2023-02-13T12:22:13;103476.63;;;8.80;100.00
54262;BME280;40174;52.364;6.452;2023-02-13T12:25:15;103472.63;;;8.94;100.00
54262;BME280;40174;52.364;6.452;2023-02-13T12:27:52;103473.91;;;9.09;100.00
54262;BME280;40174;52.364;6.452;2023-02-13T12:30:40;103470.31;;;9.12;100.00
54262;BME280;40174;52.364;6.452;2023-02-13T12:33:23;103455.09;;;9.20;100.00
54262;BME280;40174;52.364;6.452;2023-02-13T12:36:00;103456.00;;;9.19;100.00
54262;BME280;40174;52.364;6.452;2023-02-13T12:38:43;103465.81;;;9.15;100.00
54262;BME280;40174;52.364;6.452;2023-02-13T12:41:18;103455.41;;;9.11;100.00
54262;BME280;40174;52.364;6.452;2023-02-13T12:47:00;103450.38;;;9.30;100.00
54262;BME280;40174;52.364;6.452;2023-02-13T12:55:44;103447.50;;;9.63;100.00
54262;BME280;40174;52.364;6.452;2023-02-13T12:58:44;103442.13;;;9.66;100.00
54262;BME280;40174;52.364;6.452;2023-02-13T13:01:21;103437.28;;;10.02;100.00
54262;BME280;40174;52.364;6.452;2023-02-13T13:03:58;103433.44;;;9.87;100.00
54262;BME280;40174;52.364;6.452;2023-02-13T13:06:56;103425.47;;;9.89;100.00
54262;BME280;40174;52.364;6.452;2023-02-13T13:09:55;103420.72;;;9.98;100.00
54262;BME280;40174;52.364;6.452;2023-02-13T13:12:35;103417.19;;;10.22;100.00
54262;BME280;40174;52.364;6.452;2023-02-13T13:15:09;103422.56;;;10.44;100.00
54262;BME280;40174;52.364;6.452;2023-02-13T13:17:46;103425.72;;;10.53;100.00
54262;BME280;40174;52.364;6.452;2023-02-13T13:20:39;103425.25;;;10.66;100.00
54262;BME280;40174;52.364;6.452;2023-02-13T13:23:14;103420.25;;;10.80;100.00
54262;BME280;40174;52.364;6.452;2023-02-13T13:25:47;103419.06;;;10.87;100.00
54262;BME280;40174;52.364;6.452;2023-02-13T13:28:20;103424.38;;;10.87;100.00